createdAt,value
2018-08-13T00:00:45.162Z,21.00
2018-08-13T00:03:12.836Z,21.30
2018-08-13T00:05:40.549Z,20.90
2018-08-13T00:08:08.232Z,21.50
2018-08-13T00:17:59.489Z,21.10
2018-08-13T00:27:49.356Z,21.10
2018-08-13T00:30:16.812Z,21.00
2018-08-13T00:32:44.535Z,21.10
2018-08-13T00:37:39.532Z,21.30
2018-08-13T00:42:35.684Z,21.20
2018-08-13T00:49:59.015Z,21.00
2018-08-13T00:52:26.558Z,20.60
2018-08-13T00:54:54.164Z,21.00
2018-08-13T00:57:21.906Z,20.90
2018-08-13T01:02:16.831Z,21.10
2018-08-13T01:04:44.303Z,21.10
2018-08-13T01:07:11.905Z,21.20
2018-08-13T01:09:39.437Z,21.00
2018-08-13T01:12:07.097Z,21.10
2018-08-13T01:14:35.262Z,21.00
2018-08-13T01:17:02.839Z,20.90
2018-08-13T01:19:30.552Z,20.90
2018-08-13T01:21:59.029Z,21.20
2018-08-13T01:24:26.620Z,21.10
2018-08-13T01:26:54.280Z,20.80
2018-08-13T01:29:21.831Z,20.80
2018-08-13T01:31:49.375Z,20.80
2018-08-13T01:34:16.869Z,20.80
2018-08-13T01:36:44.416Z,20.90
2018-08-13T01:39:11.988Z,20.80
2018-08-13T01:41:39.537Z,20.60
2018-08-13T01:44:07.140Z,20.40
2018-08-13T01:46:35.020Z,20.40
2018-08-13T01:51:30.029Z,19.90
2018-08-13T01:53:57.655Z,20.00
2018-08-13T01:56:25.161Z,20.40
2018-08-13T01:58:52.605Z,20.40
2018-08-13T02:01:20.122Z,20.60
2018-08-13T02:16:52.193Z,20.50
2018-08-13T02:19:19.883Z,20.10
2018-08-13T02:21:47.406Z,20.20
2018-08-13T02:24:14.928Z,20.20
2018-08-13T02:26:42.427Z,20.30
2018-08-13T02:29:10.055Z,20.20
2018-08-13T02:31:37.557Z,20.30
2018-08-13T02:34:05.232Z,20.40
2018-08-13T02:36:32.773Z,20.60
2018-08-13T02:39:00.358Z,20.60
2018-08-13T02:41:27.777Z,20.60
2018-08-13T02:43:55.430Z,20.40
2018-08-13T02:46:22.976Z,20.10
2018-08-13T02:48:50.468Z,20.20
2018-08-13T02:51:17.988Z,20.10
2018-08-13T02:53:45.643Z,20.00
2018-08-13T02:56:13.184Z,20.00
2018-08-13T02:58:40.748Z,20.00
2018-08-13T03:01:08.730Z,20.10
2018-08-13T03:03:36.300Z,20.10
2018-08-13T03:06:04.044Z,20.30
2018-08-13T03:08:31.543Z,20.00
2018-08-13T03:10:59.255Z,20.00
2018-08-13T03:13:26.952Z,20.00
2018-08-13T03:15:54.435Z,20.10
2018-08-13T03:18:21.963Z,20.00
2018-08-13T03:20:49.602Z,20.10
2018-08-13T03:23:17.081Z,20.30
2018-08-13T03:25:44.619Z,20.40
2018-08-13T03:28:12.827Z,20.30
2018-08-13T03:30:40.496Z,20.30
2018-08-13T03:33:08.123Z,20.10
2018-08-13T03:35:35.643Z,19.60
2018-08-13T03:38:03.172Z,19.60
2018-08-13T03:40:30.736Z,19.50
2018-08-13T03:42:58.221Z,19.20
2018-08-13T03:45:25.759Z,19.10
2018-08-13T03:47:53.321Z,19.30
2018-08-13T03:50:20.765Z,19.70
2018-08-13T03:52:48.254Z,19.70
2018-08-13T03:55:15.829Z,19.70
2018-08-13T03:57:43.327Z,19.80
2018-08-13T04:00:14.133Z,19.70
2018-08-13T04:15:46.287Z,19.70
2018-08-13T04:18:13.964Z,19.70
2018-08-13T04:20:41.489Z,19.90
2018-08-13T04:23:08.970Z,19.90
2018-08-13T04:25:36.453Z,20.00
2018-08-13T04:28:04.307Z,20.00
2018-08-13T04:30:32.048Z,19.70
2018-08-13T04:32:59.516Z,19.70
2018-08-13T04:35:27.069Z,19.70
2018-08-13T04:37:54.647Z,19.70
2018-08-13T04:40:22.196Z,19.90
2018-08-13T04:42:49.849Z,19.90
2018-08-13T04:45:17.353Z,20.00
2018-08-13T04:47:51.473Z,19.80
2018-08-13T04:50:19.438Z,19.90
2018-08-13T04:52:48.124Z,19.90
2018-08-13T04:55:15.747Z,19.70
2018-08-13T04:57:43.439Z,20.00
2018-08-13T05:00:10.980Z,20.20
2018-08-13T05:02:38.764Z,20.20
2018-08-13T05:05:07.745Z,20.20
2018-08-13T05:07:35.435Z,20.30
2018-08-13T05:10:03.498Z,20.20
2018-08-13T05:12:32.274Z,20.10
2018-08-13T05:15:00.110Z,20.10
2018-08-13T05:17:27.612Z,20.10
2018-08-13T05:19:55.280Z,20.10
2018-08-13T05:22:24.872Z,20.00
2018-08-13T05:24:53.625Z,20.00
2018-08-13T05:27:21.226Z,20.00
2018-08-13T05:29:48.793Z,20.10
2018-08-13T05:32:16.308Z,20.00
2018-08-13T05:34:44.384Z,20.00
2018-08-13T05:37:11.944Z,20.10
2018-08-13T05:39:39.600Z,20.10
2018-08-13T05:42:07.727Z,20.10
2018-08-13T05:44:35.292Z,20.10
2018-08-13T05:47:02.793Z,20.10
2018-08-13T05:49:31.202Z,20.20
2018-08-13T05:51:58.880Z,20.20
2018-08-13T05:54:27.098Z,20.10
2018-08-13T05:56:55.400Z,20.00
2018-08-13T05:59:23.010Z,20.00
2018-08-13T06:01:50.516Z,19.80
2018-08-13T06:04:18.236Z,19.60
2018-08-13T06:06:46.323Z,19.70
2018-08-13T06:09:13.837Z,19.70
2018-08-13T06:11:41.593Z,19.30
2018-08-13T06:14:09.187Z,19.10
2018-08-13T06:16:36.954Z,19.20
2018-08-13T06:19:04.576Z,19.20
2018-08-13T06:21:32.141Z,19.40
2018-08-13T06:23:59.744Z,19.10
2018-08-13T06:26:27.319Z,19.00
2018-08-13T06:28:55.525Z,19.00
2018-08-13T06:31:24.347Z,19.00
2018-08-13T06:33:52.684Z,19.10
2018-08-13T06:36:20.489Z,19.00
2018-08-13T06:38:48.187Z,19.20
2018-08-13T06:41:15.657Z,19.20
2018-08-13T06:43:43.188Z,19.20
2018-08-13T06:46:10.869Z,19.30
2018-08-13T06:48:38.393Z,19.30
2018-08-13T06:51:05.967Z,19.30
2018-08-13T06:53:34.950Z,19.10
2018-08-13T06:56:02.513Z,19.20
2018-08-13T06:58:30.207Z,19.10
2018-08-13T07:00:58.301Z,19.10
2018-08-13T07:05:53.281Z,19.30
2018-08-13T07:08:20.922Z,19.20
2018-08-13T07:10:48.725Z,19.50
2018-08-13T07:13:16.216Z,19.50
2018-08-13T07:15:43.925Z,19.50
2018-08-13T07:18:12.300Z,19.50
2018-08-13T07:20:41.111Z,19.60
2018-08-13T07:23:08.881Z,19.70
2018-08-13T07:25:37.096Z,19.60
2018-08-13T07:28:05.228Z,19.50
2018-08-13T07:30:32.746Z,19.50
2018-08-13T07:33:00.228Z,19.60
2018-08-13T07:35:28.546Z,19.60
2018-08-13T07:37:56.279Z,19.40
2018-08-13T07:40:23.837Z,19.60
2018-08-13T07:42:51.916Z,19.50
2018-08-13T07:45:19.501Z,19.60
2018-08-13T07:47:48.315Z,19.50
2018-08-13T07:50:15.948Z,19.40
2018-08-13T07:52:44.166Z,19.40
2018-08-13T07:55:12.681Z,19.40
2018-08-13T07:57:41.322Z,19.60
2018-08-13T08:00:11.290Z,19.50
2018-08-13T08:02:38.934Z,19.60
2018-08-13T08:05:07.067Z,19.60
2018-08-13T08:07:34.971Z,19.50
2018-08-13T08:10:03.064Z,19.40
2018-08-13T08:12:30.593Z,19.40
2018-08-13T08:14:58.617Z,19.50
2018-08-13T08:17:26.152Z,19.60
2018-08-13T08:19:53.801Z,19.60
2018-08-13T08:22:21.371Z,19.50
2018-08-13T08:24:49.357Z,19.60
2018-08-13T08:27:16.912Z,19.60
2018-08-13T08:29:44.467Z,19.50
2018-08-13T08:32:12.050Z,19.40
2018-08-13T08:34:39.773Z,19.30
2018-08-13T08:37:07.977Z,19.30
2018-08-13T08:39:35.555Z,19.30
2018-08-13T08:42:03.152Z,19.40
2018-08-13T08:44:30.721Z,19.40
2018-08-13T08:46:58.267Z,19.50
2018-08-13T08:49:26.861Z,19.60
2018-08-13T08:51:54.570Z,19.60
2018-08-13T08:54:23.059Z,19.60
2018-08-13T08:56:51.527Z,19.50
2018-08-13T08:59:19.639Z,19.50
2018-08-13T09:01:47.197Z,19.70
2018-08-13T09:04:14.735Z,19.60
2018-08-13T09:06:42.775Z,19.70
2018-08-13T09:09:12.717Z,19.70
2018-08-13T09:11:40.891Z,19.70
2018-08-13T09:14:09.361Z,19.70
2018-08-13T09:16:39.602Z,19.80
2018-08-13T09:19:18.671Z,20.00
2018-08-13T09:21:50.089Z,20.00
2018-08-13T09:24:28.828Z,20.10
2018-08-13T09:27:07.862Z,20.30
2018-08-13T09:29:46.773Z,20.40
2018-08-13T09:32:27.299Z,20.50
2018-08-13T09:35:00.849Z,20.40
2018-08-13T09:37:28.889Z,20.20
2018-08-13T09:39:57.142Z,20.20
2018-08-13T09:42:25.253Z,20.10
2018-08-13T09:44:54.610Z,20.10
2018-08-13T09:47:22.319Z,20.10
2018-08-13T09:49:49.968Z,20.10
2018-08-13T09:52:17.670Z,20.20
2018-08-13T09:54:45.836Z,20.40
2018-08-13T09:57:13.886Z,20.60
2018-08-13T09:59:41.567Z,20.60
2018-08-13T10:02:09.198Z,20.60
2018-08-13T10:04:37.464Z,20.70
2018-08-13T10:07:06.127Z,20.70
2018-08-13T10:09:34.326Z,20.60
2018-08-13T10:12:02.207Z,20.70
2018-08-13T10:14:29.784Z,20.70
2018-08-13T10:16:58.273Z,20.60
2018-08-13T10:19:26.726Z,20.60
2018-08-13T10:21:55.060Z,20.50
2018-08-13T10:24:23.403Z,20.50
2018-08-13T10:26:51.009Z,20.40
2018-08-13T10:29:18.591Z,20.40
2018-08-13T10:31:46.157Z,20.20
2018-08-13T10:34:13.727Z,20.30
2018-08-13T10:36:41.347Z,20.30
2018-08-13T10:39:09.982Z,20.20
2018-08-13T10:41:38.383Z,20.20
2018-08-13T10:44:07.848Z,20.20
2018-08-13T10:46:35.583Z,20.30
2018-08-13T10:49:03.591Z,20.10
2018-08-13T10:51:31.556Z,20.20
2018-08-13T10:54:00.341Z,20.10
2018-08-13T10:56:29.214Z,20.10
2018-08-13T10:58:57.294Z,20.10
2018-08-13T11:01:25.988Z,20.10
2018-08-13T11:03:55.273Z,20.10
2018-08-13T11:06:24.972Z,20.00
2018-08-13T11:08:53.944Z,19.90
2018-08-13T11:11:22.357Z,20.00
2018-08-13T11:13:51.500Z,20.00
2018-08-13T11:16:19.340Z,20.00
2018-08-13T11:18:48.115Z,20.10
2018-08-13T11:21:16.649Z,20.10
2018-08-13T11:23:45.119Z,20.20
2018-08-13T11:26:14.046Z,20.20
2018-08-13T11:28:42.205Z,20.30
2018-08-13T11:31:11.475Z,20.20
2018-08-13T11:33:40.459Z,20.10
2018-08-13T11:36:08.533Z,20.10
2018-08-13T11:38:36.531Z,20.00
2018-08-13T11:41:04.789Z,20.00
2018-08-13T11:43:33.523Z,20.10
2018-08-13T11:46:01.450Z,20.20
2018-08-13T11:48:29.632Z,20.30
2018-08-13T11:53:26.340Z,20.50
2018-08-13T11:55:55.050Z,20.40
2018-08-13T11:58:23.038Z,20.50
2018-08-13T12:00:52.202Z,20.40
2018-08-13T12:03:21.278Z,20.50
2018-08-13T12:05:49.328Z,20.70
2018-08-13T12:08:17.436Z,21.30
2018-08-13T12:10:46.235Z,21.20
2018-08-13T12:13:14.294Z,21.30
2018-08-13T12:15:42.080Z,21.20
2018-08-13T12:18:11.292Z,21.30
2018-08-13T12:20:40.058Z,21.30
2018-08-13T12:23:09.908Z,21.30
2018-08-13T12:25:38.543Z,21.40
2018-08-13T12:28:06.944Z,21.60
2018-08-13T12:30:37.660Z,21.70
2018-08-13T12:33:06.184Z,22.00
2018-08-13T12:35:37.281Z,22.00
2018-08-13T12:38:05.612Z,22.10
2018-08-13T12:40:34.451Z,22.10
2018-08-13T12:43:03.533Z,22.10
2018-08-13T12:45:31.729Z,22.30
2018-08-13T12:48:00.809Z,22.60
2018-08-13T12:50:29.439Z,22.90
2018-08-13T12:52:57.523Z,23.00
2018-08-13T12:56:49.826Z,23.00
2018-08-13T12:59:18.529Z,23.00
2018-08-13T13:01:46.392Z,22.90
2018-08-13T13:04:14.853Z,22.70
2018-08-13T13:06:43.043Z,22.70
2018-08-13T13:09:12.450Z,22.70
2018-08-13T13:11:41.623Z,22.70
2018-08-13T13:14:10.123Z,22.80
2018-08-13T13:16:39.040Z,22.90
2018-08-13T13:19:07.476Z,23.10
2018-08-13T13:21:35.259Z,23.10
2018-08-13T13:24:04.926Z,23.10
2018-08-13T13:26:33.213Z,23.10
2018-08-13T13:29:02.412Z,23.00
2018-08-13T13:31:31.925Z,23.00
2018-08-13T13:34:00.685Z,23.00
2018-08-13T13:36:28.852Z,22.80
2018-08-13T13:38:56.808Z,22.70
2018-08-13T13:41:24.953Z,22.70
2018-08-13T13:43:54.724Z,22.80
2018-08-13T13:46:24.384Z,22.80
2018-08-13T13:48:52.662Z,22.80
2018-08-13T13:51:23.181Z,23.00
2018-08-13T13:53:52.692Z,23.20
2018-08-13T13:56:23.287Z,23.30
2018-08-13T13:58:53.282Z,23.30
2018-08-13T14:01:21.650Z,23.30
2018-08-13T14:03:50.909Z,23.30
2018-08-13T14:06:19.773Z,23.40
2018-08-13T14:08:48.540Z,23.40
2018-08-13T14:11:16.672Z,23.40
2018-08-13T14:13:45.153Z,23.50
2018-08-13T14:16:13.296Z,23.50
2018-08-13T14:18:42.396Z,23.60
2018-08-13T14:21:10.842Z,23.60
2018-08-13T14:23:38.548Z,23.80
2018-08-13T14:26:07.130Z,23.90
2018-08-13T14:28:36.292Z,23.80
2018-08-13T14:32:08.039Z,23.80
2018-08-13T14:34:36.899Z,23.90
2018-08-13T14:39:32.014Z,23.80
2018-08-13T14:42:00.304Z,23.70
2018-08-13T14:44:28.029Z,23.60
2018-08-13T14:46:55.581Z,23.60
2018-08-13T14:49:23.178Z,23.80
2018-08-13T14:51:50.883Z,23.90
2018-08-13T14:54:18.534Z,23.80
2018-08-13T14:56:46.718Z,23.70
2018-08-13T14:59:14.499Z,23.60
2018-08-13T15:01:42.240Z,23.50
2018-08-13T15:04:09.856Z,23.50
2018-08-13T15:06:37.754Z,23.30
2018-08-13T15:09:08.401Z,23.20
2018-08-13T15:11:38.727Z,23.10
2018-08-13T15:14:08.719Z,23.10
2018-08-13T15:16:36.436Z,23.00
2018-08-13T15:19:04.578Z,23.10
2018-08-13T15:21:33.076Z,23.20
2018-08-13T15:24:01.567Z,23.20
2018-08-13T15:26:30.861Z,23.30
2018-08-13T15:28:58.745Z,23.30
2018-08-13T15:33:53.790Z,23.30
2018-08-13T15:36:21.652Z,23.30
2018-08-13T15:38:49.353Z,23.40
2018-08-13T15:41:17.147Z,23.60
2018-08-13T15:43:44.823Z,23.70
2018-08-13T15:46:12.654Z,23.70
2018-08-13T15:48:40.300Z,23.70
2018-08-13T15:51:08.055Z,23.70
2018-08-13T15:56:03.267Z,23.50
2018-08-13T15:58:30.851Z,23.40
2018-08-13T16:00:58.569Z,23.50
2018-08-13T16:05:53.571Z,23.50
2018-08-13T16:10:49.204Z,23.50
2018-08-13T16:13:16.717Z,23.40
2018-08-13T16:15:44.451Z,23.40
2018-08-13T16:18:12.073Z,23.40
2018-08-13T16:20:39.656Z,23.40
2018-08-13T16:23:08.359Z,23.40
2018-08-13T16:25:35.961Z,23.40
2018-08-13T16:28:03.552Z,23.30
2018-08-13T16:30:31.447Z,23.40
2018-08-13T16:32:59.198Z,23.50
2018-08-13T16:35:26.946Z,23.50
2018-08-13T16:37:55.045Z,23.50
2018-08-13T16:40:22.661Z,23.50
2018-08-13T16:42:51.363Z,23.50
2018-08-13T16:45:20.510Z,23.50
2018-08-13T16:47:48.134Z,23.40
2018-08-13T16:50:22.489Z,23.40
2018-08-13T16:52:50.655Z,23.40
2018-08-13T16:55:18.248Z,23.30
2018-08-13T16:57:45.878Z,23.30
2018-08-13T17:00:15.821Z,23.30
2018-08-13T17:02:45.229Z,23.30
2018-08-13T17:05:12.934Z,23.30
2018-08-13T17:07:41.719Z,23.30
2018-08-13T17:10:13.368Z,23.30
2018-08-13T17:12:41.217Z,23.30
2018-08-13T17:15:09.924Z,23.30
2018-08-13T17:17:37.909Z,23.20
2018-08-13T17:20:06.709Z,23.20
2018-08-13T17:22:34.288Z,23.20
2018-08-13T17:25:02.552Z,23.20
2018-08-13T17:27:30.442Z,23.10
2018-08-13T17:29:58.180Z,23.10
2018-08-13T17:35:24.793Z,23.10
2018-08-13T17:37:52.803Z,23.00
2018-08-13T17:40:22.480Z,23.00
2018-08-13T17:42:51.104Z,23.00
2018-08-13T17:45:19.042Z,23.00
2018-08-13T17:47:47.022Z,23.10
2018-08-13T17:50:18.807Z,23.10
2018-08-13T17:52:46.690Z,23.20
2018-08-13T17:55:14.900Z,23.00
2018-08-13T17:57:43.150Z,22.90
2018-08-13T18:00:16.307Z,22.70
2018-08-13T18:02:44.019Z,22.40
2018-08-13T18:05:14.377Z,22.20
2018-08-13T18:07:42.812Z,22.10
2018-08-13T18:15:10.464Z,21.80
2018-08-13T18:42:55.655Z,21.10
2018-08-13T18:50:19.811Z,20.40
2018-08-13T18:52:47.501Z,20.40
2018-08-13T18:55:17.833Z,20.30
2018-08-13T18:57:46.328Z,20.10
2018-08-13T19:00:17.105Z,20.20
2018-08-13T19:02:45.798Z,20.20
2018-08-13T19:05:14.797Z,20.10
2018-08-13T19:07:43.737Z,20.10
2018-08-13T19:12:40.476Z,20.00
2018-08-13T19:15:10.492Z,19.90
2018-08-13T19:20:09.684Z,19.70
2018-08-13T19:22:37.625Z,19.80
2018-08-13T19:25:08.555Z,19.80
2018-08-13T19:27:36.508Z,19.80
2018-08-13T19:30:05.313Z,19.80
2018-08-13T19:32:33.140Z,19.80
2018-08-13T19:35:02.023Z,19.80
2018-08-13T19:37:29.717Z,19.70
2018-08-13T19:39:57.485Z,19.80
2018-08-13T19:42:25.308Z,19.90
2018-08-13T19:44:53.250Z,19.90
2018-08-13T19:49:48.669Z,19.70
2018-08-13T19:52:16.540Z,19.60
2018-08-13T19:54:44.426Z,19.50
2018-08-13T19:57:12.185Z,19.50
2018-08-13T19:59:40.150Z,19.50
2018-08-13T20:02:07.988Z,19.40
2018-08-13T20:04:35.826Z,19.50
2018-08-13T20:07:03.936Z,19.50
2018-08-13T20:11:59.983Z,19.30
2018-08-13T20:14:28.752Z,19.30
2018-08-13T20:16:56.774Z,19.20
2018-08-13T20:19:25.376Z,19.20
2018-08-13T20:21:53.356Z,19.20
2018-08-13T20:24:23.112Z,19.10
2018-08-13T20:26:51.123Z,19.10
2018-08-13T20:29:18.691Z,19.20
2018-08-13T20:31:46.971Z,19.10
2018-08-13T20:34:14.521Z,19.00
2018-08-13T20:36:42.124Z,19.00
2018-08-13T20:39:13.245Z,19.00
2018-08-13T20:41:41.095Z,19.00
2018-08-13T20:44:09.572Z,19.10
2018-08-13T20:46:37.466Z,19.10
2018-08-13T20:49:05.621Z,19.10
2018-08-13T20:51:33.634Z,19.10
2018-08-13T20:54:01.298Z,19.20
2018-08-13T20:56:28.860Z,19.30
2018-08-13T20:58:56.420Z,19.50
2018-08-13T21:01:24.035Z,19.50
2018-08-13T21:03:51.959Z,19.60
2018-08-13T21:06:19.513Z,19.80
2018-08-13T21:08:47.055Z,19.80
2018-08-13T21:11:14.588Z,19.80
2018-08-13T21:13:42.201Z,19.90
2018-08-13T21:16:09.817Z,19.80
2018-08-13T21:18:37.396Z,19.70
2018-08-13T21:21:04.949Z,19.40
2018-08-13T21:25:59.981Z,19.60
2018-08-13T21:28:27.541Z,19.40
2018-08-13T21:30:55.101Z,19.30
2018-08-13T21:33:22.684Z,19.30
2018-08-13T21:35:50.231Z,19.40
2018-08-13T21:38:17.763Z,19.30
2018-08-13T21:40:45.296Z,19.30
2018-08-13T21:43:12.912Z,19.30
2018-08-13T21:45:40.465Z,19.20
2018-08-13T21:48:07.968Z,19.20
2018-08-13T21:50:35.723Z,19.20
2018-08-13T21:53:03.245Z,19.30
2018-08-13T21:55:31.372Z,19.20
2018-08-13T21:57:58.908Z,19.30
2018-08-13T22:00:30.320Z,19.30
2018-08-13T22:03:00.964Z,19.30
2018-08-13T22:05:28.543Z,19.30
2018-08-13T22:07:56.280Z,19.20
2018-08-13T22:10:23.924Z,19.20
2018-08-13T22:12:51.555Z,19.00
2018-08-13T22:15:25.813Z,19.00
2018-08-13T22:17:54.310Z,18.90
2018-08-13T22:20:22.166Z,19.00
2018-08-13T22:22:49.752Z,19.00
2018-08-13T22:25:19.913Z,19.10
2018-08-13T22:27:47.566Z,19.10
2018-08-13T22:30:15.167Z,19.10
2018-08-13T22:32:42.739Z,19.00
2018-08-13T22:35:10.560Z,18.90
2018-08-13T22:37:40.154Z,19.00
2018-08-13T22:40:10.993Z,19.10
2018-08-13T22:42:38.644Z,19.10
2018-08-13T22:45:07.296Z,19.10
2018-08-13T22:47:34.842Z,19.10
2018-08-13T22:50:03.950Z,19.10
2018-08-13T22:52:31.521Z,19.20
2018-08-13T22:54:58.987Z,19.20
2018-08-13T22:57:26.548Z,19.10
2018-08-13T22:59:54.080Z,19.00
2018-08-13T23:02:21.572Z,19.00
2018-08-13T23:04:49.139Z,18.90
2018-08-13T23:09:44.106Z,18.50
2018-08-13T23:12:11.672Z,18.50
2018-08-13T23:14:39.236Z,18.50
2018-08-13T23:17:06.732Z,18.70
2018-08-13T23:19:34.273Z,18.60
2018-08-13T23:22:01.960Z,18.50
2018-08-13T23:24:29.496Z,18.40
2018-08-13T23:26:57.311Z,18.50
2018-08-13T23:29:24.853Z,18.50
2018-08-13T23:31:52.415Z,18.50
2018-08-13T23:34:19.990Z,18.50
2018-08-13T23:36:47.608Z,18.50
2018-08-13T23:39:15.105Z,18.80
2018-08-13T23:41:43.279Z,18.90
2018-08-13T23:44:10.819Z,19.00
2018-08-13T23:46:38.432Z,18.80
2018-08-13T23:49:06.204Z,18.80
2018-08-13T23:51:33.968Z,18.70
2018-08-13T23:54:01.505Z,18.60
2018-08-13T23:56:29.026Z,18.60
2018-08-13T23:58:56.571Z,18.60
